Time;durP1;ratioP1;P1;durP2;ratioP2;P2;SDS_P1;SDS_P2;PMS_P1;PMS_P2;Temp;Humidity;BMP_temperature;BMP_pressure;BME280_temperature;BME280_humidity;BME280_pressure;Samples;Min_cycle;Max_cycle;Signal;HPM_P1;HPM_P2
2022/05/15 16:11:03;;;;;;;3.5;2.8;;;;;;;26.45;41.18359;936.9123;;;;
2022/05/15 16:15:28;;;;;;;3.6;2.8;;;;;;;26.53;40.50391;936.9644;;;;
2022/05/15 16:17:58;;;;;;;5.9;2.5;;;;;;;26.42;40.02148;936.961;;;;
2022/05/15 16:20:31;;;;;;;4.8;2.5;;;;;;;26.35;40.91406;936.9175;;;;
2022/05/15 16:23:03;;;;;;;2.6;2.3;;;;;;;26.33;40.10742;936.985;;;;
2022/05/15 16:25:35;;;;;;;5.6;2.6;;;;;;;26.28;39.93652;936.9726;;;;
2022/05/15 16:28:01;;;;;;;3.3;2.6;;;;;;;26.15;40.43359;936.9683;;;;
2022/05/15 16:30:28;;;;;;;3.8;2.5;;;;;;;26.05;40.7207;936.8976;;;;
2022/05/15 16:32:55;;;;;;;3.8;2.8;;;;;;;25.91;40.4248;936.9163;;;;
2022/05/15 16:35:28;;;;;;;3;2.3;;;;;;;25.84;40.71387;936.9242;;;;
2022/05/15 16:37:58;;;;;;;3.5;2.4;;;;;;;25.81;40.59277;936.908;;;;
2022/05/15 16:40:30;;;;;;;3.8;2.4;;;;;;;25.61;40.94141;936.8621;;;;
2022/05/15 16:42:59;;;;;;;6.7;2.6;;;;;;;25.64;40.25879;936.8128;;;;
2022/05/15 16:45:31;;;;;;;4.1;2.7;;;;;;;25.66;40.62695;936.8803;;;;
2022/05/15 16:47:58;;;;;;;6.6;3;;;;;;;25.57;41.11523;936.8918;;;;
2022/05/15 16:50:26;;;;;;;4.6;2.6;;;;;;;25.31;41.26758;936.896;;;;
2022/05/15 16:52:54;;;;;;;4.2;2.4;;;;;;;25.29;41.34863;936.9124;;;;
2022/05/15 16:55:21;;;;;;;3.5;2.6;;;;;;;25.27;41.53516;936.9483;;;;
2022/05/15 16:57:51;;;;;;;3.7;2.5;;;;;;;25.17;41.56152;936.9133;;;;
2022/05/15 17:00:19;;;;;;;4.4;2.3;;;;;;;25.08;41.71875;936.9067;;;;
2022/05/15 17:02:45;;;;;;;5.5;2.5;;;;;;;24.98;41.89844;936.8744;;;;
2022/05/15 17:05:14;;;;;;;4.2;2.7;;;;;;;24.9;41.97266;936.868;;;;
2022/05/15 17:07:45;;;;;;;3.8;2.9;;;;;;;24.84;41.94434;936.8917;;;;
2022/05/15 17:10:12;;;;;;;3.8;2.2;;;;;;;24.81;42.35449;936.9091;;;;
2022/05/15 17:12:37;;;;;;;4.3;2.5;;;;;;;24.71;42.55664;936.8937;;;;
2022/05/15 17:15:10;;;;;;;2.9;2.5;;;;;;;24.65;42.46777;936.8748;;;;
2022/05/15 17:17:37;;;;;;;2.9;2.4;;;;;;;24.64;42.97461;936.8496;;;;
2022/05/15 17:20:02;;;;;;;2.6;2.2;;;;;;;24.62;42.77246;936.9069;;;;
2022/05/15 17:22:27;;;;;;;3.7;2.3;;;;;;;24.47;43.13477;936.873;;;;
2022/05/15 17:24:52;;;;;;;3.1;2.5;;;;;;;24.49;43.17188;936.8242;;;;
2022/05/15 17:27:21;;;;;;;3.1;2.6;;;;;;;24.49;43.30176;936.8312;;;;
2022/05/15 17:34:40;;;;;;;4.7;2.5;;;;;;;24.32;44.11035;936.7999;;;;
2022/05/15 17:37:10;;;;;;;5.3;2.6;;;;;;;24.2;44.35645;936.7836;;;;
2022/05/15 17:39:41;;;;;;;3.4;2.6;;;;;;;24.17;44.44824;936.8362;;;;
2022/05/15 17:42:06;;;;;;;4;2.4;;;;;;;24.03;44.74121;936.8879;;;;
2022/05/15 17:44:34;;;;;;;2.8;2.5;;;;;;;23.86;45.18262;936.8489;;;;
2022/05/15 17:46:59;;;;;;;5.4;3.1;;;;;;;23.85;44.94629;936.8567;;;;
2022/05/15 17:49:31;;;;;;;3.3;2.7;;;;;;;23.84;45.41504;936.9664;;;;
2022/05/15 17:51:59;;;;;;;5;2.3;;;;;;;23.88;45.71387;936.936;;;;
2022/05/15 17:54:24;;;;;;;4.5;2.5;;;;;;;23.84;44.8623;936.9956;;;;
2022/05/15 17:56:55;;;;;;;5.1;2.5;;;;;;;23.74;44.9707;936.9531;;;;
2022/05/15 17:59:27;;;;;;;4.3;2.7;;;;;;;23.74;45.16992;936.9914;;;;
2022/05/15 18:01:52;;;;;;;3.4;2.5;;;;;;;23.7;45.49609;937.0258;;;;
2022/05/15 18:04:19;;;;;;;3.6;2.5;;;;;;;23.68;46.69434;937.0153;;;;
2022/05/15 18:06:44;;;;;;;3.4;2.4;;;;;;;23.51;47.44043;937.0599;;;;
2022/05/15 18:09:11;;;;;;;3.9;2.6;;;;;;;23.46;46.83594;937.1197;;;;
2022/05/15 18:11:38;;;;;;;5.5;2.9;;;;;;;23.46;48.21094;937.1102;;;;
2022/05/15 18:14:05;;;;;;;4.3;2.9;;;;;;;23.2;49.99219;937.1262;;;;
2022/05/15 18:16:30;;;;;;;4.5;2.7;;;;;;;23.08;49.82617;937.0765;;;;
2022/05/15 18:18:58;;;;;;;5.9;3.4;;;;;;;23;50.55762;937.1492;;;;
2022/05/15 18:21:23;;;;;;;5.2;3.3;;;;;;;22.82;51.99219;937.1588;;;;
2022/05/15 18:23:50;;;;;;;11.3;3.8;;;;;;;22.68;52.64648;937.2296;;;;
2022/05/15 18:26:15;;;;;;;8.2;3.7;;;;;;;22.52;52.99023;937.2446;;;;
2022/05/15 18:28:45;;;;;;;7;3.8;;;;;;;22.44;52.19531;937.2977;;;;
2022/05/15 18:31:08;;;;;;;9.3;3.5;;;;;;;22.25;52.99316;937.3128;;;;
2022/05/15 18:33:36;;;;;;;10.3;3.9;;;;;;;21.93;55.16895;937.3723;;;;
2022/05/15 18:36:00;;;;;;;7.6;3.7;;;;;;;21.86;54.92676;937.3383;;;;
2022/05/15 18:38:34;;;;;;;4.4;3;;;;;;;21.59;55.94727;937.3616;;;;
2022/05/15 18:40:58;;;;;;;5.4;3;;;;;;;21.47;56.41113;937.3205;;;;
2022/05/15 18:43:26;;;;;;;3.6;3;;;;;;;21.32;57.0127;937.3511;;;;
2022/05/15 18:45:51;;;;;;;4.8;3.1;;;;;;;21.19;58.06055;937.3777;;;;
2022/05/15 18:48:19;;;;;;;6.3;3.1;;;;;;;21.1;58.31836;937.3764;;;;
2022/05/15 18:55:40;;;;;;;5;3.5;;;;;;;20.79;58.41895;937.452;;;;
2022/05/15 18:58:04;;;;;;;5.9;4.1;;;;;;;20.81;58.36328;937.452;;;;
2022/05/15 19:00:33;;;;;;;5.1;3.3;;;;;;;20.67;58.57813;937.4565;;;;
2022/05/15 19:03:04;;;;;;;5.9;3.7;;;;;;;20.74;58.64551;937.4528;;;;
2022/05/15 19:05:35;;;;;;;5.2;4;;;;;;;20.72;59.29688;937.5683;;;;
2022/05/15 19:08:02;;;;;;;6.2;3.8;;;;;;;20.73;58.20117;937.5906;;;;
2022/05/15 19:10:27;;;;;;;3.6;3;;;;;;;20.76;57.99414;937.6099;;;;
2022/05/15 19:12:54;;;;;;;5.3;3.5;;;;;;;20.82;58.88965;937.63;;;;
2022/05/15 19:15:20;;;;;;;7;3.7;;;;;;;20.85;58.44922;937.6802;;;;
2022/05/15 19:17:45;;;;;;;5.2;3.1;;;;;;;20.92;58.7627;937.6264;;;;
2022/05/15 19:20:16;;;;;;;4.9;3.7;;;;;;;20.91;58.90039;937.7684;;;;
2022/05/15 19:22:43;;;;;;;5;3.7;;;;;;;20.9;59.80078;937.7355;;;;
2022/05/15 19:25:08;;;;;;;6;3.7;;;;;;;20.86;59.76074;937.7877;;;;
2022/05/15 19:27:38;;;;;;;4.2;3.2;;;;;;;20.87;59.09473;937.7988;;;;
2022/05/15 19:30:16;;;;;;;3.5;3.1;;;;;;;20.83;59.7793;937.8226;;;;
2022/05/15 19:32:46;;;;;;;4.1;3.4;;;;;;;20.71;60.18457;937.8746;;;;
2022/05/15 19:35:11;;;;;;;5.6;3.8;;;;;;;20.69;59.90137;937.8582;;;;
2022/05/15 19:37:45;;;;;;;8.9;3.8;;;;;;;20.67;60.63379;937.9026;;;;
2022/05/15 19:40:20;;;;;;;5.5;3.8;;;;;;;20.66;60.23535;937.868;;;;
2022/05/15 19:42:45;;;;;;;8.3;4.4;;;;;;;20.62;60.32324;937.8762;;;;
2022/05/15 19:45:18;;;;;;;5.2;3.3;;;;;;;20.6;60.47266;937.9025;;;;
2022/05/15 19:47:49;;;;;;;5.7;3.5;;;;;;;20.61;60.66113;937.9315;;;;
2022/05/15 19:50:21;;;;;;;7.5;3.6;;;;;;;20.54;60.59375;937.923;;;;
2022/05/15 19:52:49;;;;;;;7.1;4;;;;;;;20.52;61.06934;937.9608;;;;
2022/05/15 19:55:13;;;;;;;7.3;3.9;;;;;;;20.5;61.02051;937.954;;;;
2022/05/15 19:57:47;;;;;;;4.8;3.5;;;;;;;20.49;62.10547;937.9578;;;;
2022/05/15 20:00:12;;;;;;;5;3.2;;;;;;;20.44;61.94629;937.9657;;;;
2022/05/15 20:02:41;;;;;;;7.2;3.8;;;;;;;20.32;62.81641;937.9529;;;;
2022/05/15 20:12:47;;;;;;;6.1;5.2;;;;;;;20.21;62.89453;937.9955;;;;
2022/05/15 20:15:12;;;;;;;7.8;5;;;;;;;20.19;63.27734;938.0065;;;;
2022/05/15 20:17:39;;;;;;;4.7;3.7;;;;;;;20.27;61.32617;938.0353;;;;
2022/05/15 20:20:04;;;;;;;4.4;4;;;;;;;20.19;61.43164;938.0542;;;;
2022/05/15 20:22:34;;;;;;;6.3;4.9;;;;;;;20.12;61.9834;938.0796;;;;
2022/05/15 20:25:05;;;;;;;6.9;4.8;;;;;;;20.13;62.08984;938.0875;;;;
2022/05/15 20:27:33;;;;;;;5.3;4.2;;;;;;;20.08;62.71387;938.0533;;;;
2022/05/15 20:29:58;;;;;;;7.4;4.6;;;;;;;20.11;62.19238;938.0403;;;;
2022/05/15 20:32:23;;;;;;;6.5;4.1;;;;;;;20.09;62.58496;938.1031;;;;
2022/05/15 20:34:48;;;;;;;5.8;4.2;;;;;;;20.04;62.35742;938.0955;;;;
2022/05/15 20:37:19;;;;;;;7.2;4.4;;;;;;;20.04;63.16211;938.0577;;;;
2022/05/15 20:39:55;;;;;;;4.4;3.7;;;;;;;20.04;63.11426;938.0261;;;;
2022/05/15 20:42:22;;;;;;;6.8;4.1;;;;;;;20.06;62.80273;938.0305;;;;
2022/05/15 20:44:46;;;;;;;4.2;3.3;;;;;;;19.99;62.93262;938.087;;;;
2022/05/15 20:47:14;;;;;;;5.5;3.6;;;;;;;19.92;63.15723;938.1033;;;;
2022/05/15 20:49:39;;;;;;;4.1;3.4;;;;;;;19.86;63.42676;938.1139;;;;
2022/05/15 20:52:14;;;;;;;5.2;3.6;;;;;;;19.83;64.15918;938.1269;;;;
2022/05/15 20:54:43;;;;;;;5;3.8;;;;;;;19.84;63.64551;938.1775;;;;
2022/05/15 20:57:07;;;;;;;5.3;4;;;;;;;19.8;63.57129;938.1936;;;;
2022/05/15 20:59:36;;;;;;;5.2;3.9;;;;;;;19.81;63.66504;938.1278;;;;
2022/05/15 21:02:00;;;;;;;6;3.8;;;;;;;19.82;63.72461;938.1827;;;;
2022/05/15 21:04:25;;;;;;;4.5;3.8;;;;;;;19.78;64.46582;938.1795;;;;
2022/05/15 21:06:50;;;;;;;5.1;3.8;;;;;;;19.73;65.06445;938.222;;;;
2022/05/15 21:09:16;;;;;;;6.1;4.1;;;;;;;19.73;65.15918;938.2422;;;;
2022/05/15 21:11:43;;;;;;;7.2;4.2;;;;;;;19.68;65.40723;938.1546;;;;
2022/05/15 21:14:08;;;;;;;5.2;3.7;;;;;;;19.63;66.06348;938.2335;;;;
2022/05/15 21:16:39;;;;;;;5.1;4;;;;;;;19.66;65.20508;938.2732;;;;
2022/05/15 21:19:10;;;;;;;4.8;3.9;;;;;;;19.61;64.84863;938.2951;;;;
2022/05/15 21:21:35;;;;;;;5.2;4;;;;;;;19.53;64.97656;938.3244;;;;
2022/05/15 21:24:08;;;;;;;4.4;3.8;;;;;;;19.34;65.56641;938.2941;;;;
2022/05/15 21:26:33;;;;;;;5.7;3.8;;;;;;;19.33;65.68164;938.3095;;;;
2022/05/15 21:28:58;;;;;;;4.9;4.1;;;;;;;19.28;65.88281;938.3116;;;;
2022/05/15 21:31:23;;;;;;;5.9;3.7;;;;;;;19.25;66.25195;938.3284;;;;
2022/05/15 21:33:55;;;;;;;4.7;3.7;;;;;;;19.23;66.10938;938.3442;;;;
2022/05/15 21:36:22;;;;;;;5.9;4.2;;;;;;;19.03;66.71973;938.4205;;;;
2022/05/15 21:43:43;;;;;;;5;3.8;;;;;;;18.93;67.34668;938.4239;;;;
2022/05/15 21:46:08;;;;;;;4.3;3.9;;;;;;;18.92;67.59961;938.4428;;;;
2022/05/15 21:48:38;;;;;;;4.4;3.6;;;;;;;18.89;68.22266;938.4967;;;;
2022/05/15 21:51:03;;;;;;;7;4.5;;;;;;;18.96;67.83887;938.5105;;;;
2022/05/15 21:53:28;;;;;;;6.3;3.9;;;;;;;19;67.37891;938.4691;;;;
2022/05/15 21:56:08;;;;;;;5.7;4.2;;;;;;;19.11;67.2207;938.5115;;;;
2022/05/15 21:58:38;;;;;;;5.5;4.2;;;;;;;19.11;66.81445;938.5145;;;;
2022/05/15 22:01:08;;;;;;;4.2;3.8;;;;;;;19.08;66.83301;938.4684;;;;
2022/05/15 22:03:33;;;;;;;4.7;4.2;;;;;;;19.1;66.74121;938.5061;;;;
2022/05/15 22:06:03;;;;;;;4.6;3.8;;;;;;;19.11;66.52246;938.4792;;;;
2022/05/15 22:08:28;;;;;;;5;4.1;;;;;;;19.14;66.73633;938.4826;;;;
2022/05/15 22:10:53;;;;;;;4.2;3.8;;;;;;;19.11;67.02344;938.5244;;;;
2022/05/15 22:13:24;;;;;;;4.9;4;;;;;;;19.12;67.37402;938.4691;;;;
2022/05/15 22:15:48;;;;;;;5.3;3.9;;;;;;;19.14;67.22559;938.5244;;;;
2022/05/15 22:18:20;;;;;;;4.3;3.8;;;;;;;19.15;67.12305;938.4959;;;;
2022/05/15 22:20:51;;;;;;;6.4;4.2;;;;;;;19.11;67.46387;938.5478;;;;
2022/05/15 22:23:20;;;;;;;5.9;4;;;;;;;19.04;68.08301;938.5178;;;;
2022/05/15 22:25:47;;;;;;;5.6;3.9;;;;;;;18.99;67.96973;938.4397;;;;
2022/05/15 22:28:12;;;;;;;6.7;4;;;;;;;18.96;67.58301;938.4394;;;;
2022/05/15 22:30:37;;;;;;;6;4.2;;;;;;;18.77;67.96973;938.4161;;;;
2022/05/15 22:33:05;;;;;;;5.8;4;;;;;;;18.74;68.1416;938.4409;;;;
2022/05/15 22:35:38;;;;;;;6.2;4.1;;;;;;;18.66;68.79199;938.4168;;;;
2022/05/15 22:38:08;;;;;;;6;4.5;;;;;;;18.68;68.89941;938.4437;;;;
2022/05/15 22:40:39;;;;;;;5.3;4.2;;;;;;;18.67;68.83984;938.4843;;;;
2022/05/15 22:43:06;;;;;;;4.8;4.1;;;;;;;18.62;68.82031;938.4534;;;;
2022/05/15 22:45:30;;;;;;;5.2;4.2;;;;;;;18.46;69.55078;938.4034;;;;
2022/05/15 22:47:58;;;;;;;5;4.1;;;;;;;18.49;69.76563;938.377;;;;
2022/05/15 22:50:23;;;;;;;4.9;3.9;;;;;;;18.59;69.80469;938.4636;;;;
2022/05/15 22:52:51;;;;;;;6.4;4;;;;;;;18.65;69.50098;938.4824;;;;
2022/05/15 22:55:16;;;;;;;5.3;4.2;;;;;;;18.64;69.54395;938.4891;;;;
2022/05/15 22:57:47;;;;;;;5.7;4.2;;;;;;;18.63;69.4043;938.444;;;;
2022/05/15 23:00:16;;;;;;;5.5;4.5;;;;;;;18.61;69.62109;938.51;;;;
2022/05/15 23:02:46;;;;;;;5.4;4.1;;;;;;;18.56;69.73047;938.4651;;;;
2022/05/15 23:07:41;;;;;;;6.4;4.5;;;;;;;18.57;70.55762;938.5278;;;;
2022/05/15 23:10:14;;;;;;;6.5;3.9;;;;;;;18.53;69.43555;938.5714;;;;
2022/05/15 23:12:57;;;;;;;6.4;4.3;;;;;;;18.41;70.19434;938.5589;;;;
2022/05/15 23:15:38;;;;;;;6.2;4.4;;;;;;;18.38;70.55078;938.5345;;;;
2022/05/15 23:18:24;;;;;;;4.4;4;;;;;;;18.29;70.64063;938.4647;;;;
2022/05/15 23:20:49;;;;;;;4.8;3.9;;;;;;;18.29;71.28027;938.4219;;;;
2022/05/15 23:23:26;;;;;;;5.3;4;;;;;;;18.37;71.12988;938.4244;;;;
2022/05/15 23:25:56;;;;;;;6.2;4.4;;;;;;;18.48;71.33398;938.44;;;;
2022/05/15 23:28:27;;;;;;;5.3;4.2;;;;;;;18.54;70.7959;938.4188;;;;
2022/05/15 23:31:01;;;;;;;4.9;4.2;;;;;;;18.56;70.49805;938.47;;;;
2022/05/15 23:33:33;;;;;;;5.4;3.8;;;;;;;18.58;70.84961;938.4719;;;;
2022/05/15 23:36:07;;;;;;;5.3;4.1;;;;;;;18.59;71.19824;938.5089;;;;
2022/05/15 23:38:37;;;;;;;7;4.3;;;;;;;18.6;71.89941;938.5449;;;;
2022/05/15 23:41:09;;;;;;;4.7;4.1;;;;;;;18.74;70.98047;938.5747;;;;
2022/05/15 23:43:37;;;;;;;7.5;4.5;;;;;;;18.67;70.62012;938.5675;;;;
2022/05/15 23:46:07;;;;;;;4.5;4;;;;;;;18.61;71.0752;938.4947;;;;
2022/05/15 23:48:32;;;;;;;5.7;4;;;;;;;18.61;72.77344;938.4503;;;;
2022/05/15 23:51:01;;;;;;;5;4.1;;;;;;;18.52;75.00391;938.5327;;;;
2022/05/15 23:53:23;;;;;;;5.7;4.1;;;;;;;18.44;74.89551;938.5451;;;;
2022/05/15 23:55:53;;;;;;;5.1;4.4;;;;;;;18.21;74.95996;938.5345;;;;
2022/05/15 23:58:18;;;;;;;6.6;4.2;;;;;;;18.31;74.5127;938.5853;;;;
